sensor_id;sensor_type;location;lat;lon;timestamp;P1;durP1;ratioP1;P2;durP2;ratioP2
16973;SDS011;8603;46.944;7.412;2022-09-24T00:22:49;6.50;;;5.63;;
16973;SDS011;8603;46.944;7.412;2022-09-24T02:07:35;6.20;;;5.53;;
16973;SDS011;8603;46.944;7.412;2022-09-24T02:13:52;7.20;;;5.57;;
16973;SDS011;8603;46.944;7.412;2022-09-24T02:16:43;7.07;;;6.37;;
16973;SDS011;8603;46.944;7.412;2022-09-24T02:19:20;7.17;;;5.90;;
16973;SDS011;8603;46.944;7.412;2022-09-24T02:22:01;7.57;;;5.63;;
16973;SDS011;8603;46.944;7.412;2022-09-24T02:24:36;8.43;;;6.50;;
16973;SDS011;8603;46.944;7.412;2022-09-24T02:27:10;7.47;;;5.83;;
16973;SDS011;8603;46.944;7.412;2022-09-24T02:40:35;6.83;;;6.13;;
16973;SDS011;8603;46.944;7.412;2022-09-24T02:43:05;6.53;;;5.77;;
16973;SDS011;8603;46.944;7.412;2022-09-24T02:45:31;6.50;;;5.63;;
16973;SDS011;8603;46.944;7.412;2022-09-24T02:47:56;7.77;;;6.10;;
16973;SDS011;8603;46.944;7.412;2022-09-24T02:50:22;6.80;;;5.90;;
16973;SDS011;8603;46.944;7.412;2022-09-24T02:52:48;6.40;;;5.80;;
16973;SDS011;8603;46.944;7.412;2022-09-24T02:55:13;7.27;;;6.40;;
16973;SDS011;8603;46.944;7.412;2022-09-24T02:57:39;7.73;;;6.57;;
16973;SDS011;8603;46.944;7.412;2022-09-24T03:00:05;7.80;;;5.43;;
16973;SDS011;8603;46.944;7.412;2022-09-24T03:02:31;8.83;;;5.50;;
16973;SDS011;8603;46.944;7.412;2022-09-24T03:04:56;8.27;;;6.60;;
16973;SDS011;8603;46.944;7.412;2022-09-24T03:07:22;6.17;;;5.67;;
16973;SDS011;8603;46.944;7.412;2022-09-24T03:09:47;9.13;;;5.90;;
16973;SDS011;8603;46.944;7.412;2022-09-24T03:15:48;6.87;;;6.00;;
16973;SDS011;8603;46.944;7.412;2022-09-24T03:29:11;7.00;;;6.30;;
16973;SDS011;8603;46.944;7.412;2022-09-24T03:32:02;6.90;;;6.20;;
16973;SDS011;8603;46.944;7.412;2022-09-24T03:41:29;7.10;;;6.00;;
16973;SDS011;8603;46.944;7.412;2022-09-24T03:44:53;7.13;;;5.70;;
16973;SDS011;8603;46.944;7.412;2022-09-24T04:02:16;6.43;;;5.70;;
16973;SDS011;8603;46.944;7.412;2022-09-24T04:27:24;9.33;;;7.43;;
16973;SDS011;8603;46.944;7.412;2022-09-24T04:38:45;8.30;;;7.50;;
16973;SDS011;8603;46.944;7.412;2022-09-24T04:45:01;8.97;;;8.10;;
16973;SDS011;8603;46.944;7.412;2022-09-24T04:47:32;10.30;;;9.00;;
16973;SDS011;8603;46.944;7.412;2022-09-24T04:50:08;10.60;;;9.17;;
16973;SDS011;8603;46.944;7.412;2022-09-24T04:55:16;10.70;;;9.70;;
16973;SDS011;8603;46.944;7.412;2022-09-24T04:57:58;9.77;;;8.77;;
16973;SDS011;8603;46.944;7.412;2022-09-24T05:03:40;12.50;;;10.50;;
16973;SDS011;8603;46.944;7.412;2022-09-24T05:06:46;11.10;;;10.00;;
16973;SDS011;8603;46.944;7.412;2022-09-24T05:12:29;10.30;;;9.20;;
16973;SDS011;8603;46.944;7.412;2022-09-24T05:15:35;10.70;;;9.70;;
16973;SDS011;8603;46.944;7.412;2022-09-24T05:18:00;11.73;;;10.07;;
16973;SDS011;8603;46.944;7.412;2022-09-24T05:20:35;10.27;;;9.30;;
16973;SDS011;8603;46.944;7.412;2022-09-24T05:23:01;10.40;;;9.30;;
16973;SDS011;8603;46.944;7.412;2022-09-24T05:25:27;10.77;;;9.67;;
16973;SDS011;8603;46.944;7.412;2022-09-24T05:27:55;11.40;;;10.23;;
16973;SDS011;8603;46.944;7.412;2022-09-24T05:30:22;11.40;;;10.20;;
16973;SDS011;8603;46.944;7.412;2022-09-24T05:32:49;9.70;;;8.73;;
16973;SDS011;8603;46.944;7.412;2022-09-24T05:35:18;9.90;;;8.97;;
16973;SDS011;8603;46.944;7.412;2022-09-24T05:37:44;11.80;;;10.43;;
16973;SDS011;8603;46.944;7.412;2022-09-24T05:40:12;11.73;;;10.53;;
16973;SDS011;8603;46.944;7.412;2022-09-24T05:43:00;12.97;;;11.57;;
16973;SDS011;8603;46.944;7.412;2022-09-24T05:45:27;13.50;;;11.20;;
16973;SDS011;8603;46.944;7.412;2022-09-24T05:47:53;12.63;;;11.37;;
16973;SDS011;8603;46.944;7.412;2022-09-24T05:50:19;12.67;;;11.50;;
16973;SDS011;8603;46.944;7.412;2022-09-24T05:52:45;13.17;;;11.87;;
16973;SDS011;8603;46.944;7.412;2022-09-24T05:55:11;12.30;;;11.10;;
16973;SDS011;8603;46.944;7.412;2022-09-24T05:57:36;12.23;;;11.00;;
16973;SDS011;8603;46.944;7.412;2022-09-24T06:00:05;12.80;;;11.43;;
16973;SDS011;8603;46.944;7.412;2022-09-24T06:02:31;10.90;;;9.90;;
16973;SDS011;8603;46.944;7.412;2022-09-24T06:04:57;12.50;;;11.30;;
16973;SDS011;8603;46.944;7.412;2022-09-24T06:07:23;11.63;;;10.53;;
16973;SDS011;8603;46.944;7.412;2022-09-24T06:09:48;12.40;;;10.23;;
16973;SDS011;8603;46.944;7.412;2022-09-24T06:12:15;12.20;;;10.90;;
16973;SDS011;8603;46.944;7.412;2022-09-24T06:14:41;12.87;;;11.53;;
16973;SDS011;8603;46.944;7.412;2022-09-24T06:17:07;13.27;;;10.83;;
16973;SDS011;8603;46.944;7.412;2022-09-24T06:19:33;21.27;;;18.57;;
16973;SDS011;8603;46.944;7.412;2022-09-24T06:21:59;16.73;;;13.97;;
16973;SDS011;8603;46.944;7.412;2022-09-24T06:24:25;12.90;;;11.67;;
16973;SDS011;8603;46.944;7.412;2022-09-24T06:26:51;11.67;;;10.47;;
16973;SDS011;8603;46.944;7.412;2022-09-24T06:29:16;12.23;;;11.00;;
16973;SDS011;8603;46.944;7.412;2022-09-24T06:31:42;10.03;;;9.03;;
16973;SDS011;8603;46.944;7.412;2022-09-24T06:34:11;10.87;;;9.77;;
16973;SDS011;8603;46.944;7.412;2022-09-24T06:36:36;12.47;;;11.33;;
16973;SDS011;8603;46.944;7.412;2022-09-24T06:39:04;10.27;;;9.30;;
16973;SDS011;8603;46.944;7.412;2022-09-24T06:41:29;10.10;;;9.10;;
16973;SDS011;8603;46.944;7.412;2022-09-24T06:43:55;10.33;;;9.23;;
16973;SDS011;8603;46.944;7.412;2022-09-24T06:46:21;9.43;;;8.57;;
16973;SDS011;8603;46.944;7.412;2022-09-24T06:48:50;10.93;;;9.93;;
16973;SDS011;8603;46.944;7.412;2022-09-24T06:51:18;12.17;;;10.60;;
16973;SDS011;8603;46.944;7.412;2022-09-24T06:53:43;11.03;;;9.93;;
16973;SDS011;8603;46.944;7.412;2022-09-24T06:56:09;10.47;;;9.37;;
16973;SDS011;8603;46.944;7.412;2022-09-24T06:58:34;10.07;;;9.17;;
16973;SDS011;8603;46.944;7.412;2022-09-24T07:01:00;9.43;;;8.60;;
16973;SDS011;8603;46.944;7.412;2022-09-24T07:03:28;6.83;;;6.23;;
16973;SDS011;8603;46.944;7.412;2022-09-24T07:05:58;6.47;;;5.23;;
16973;SDS011;8603;46.944;7.412;2022-09-24T07:08:25;5.97;;;5.00;;
16973;SDS011;8603;46.944;7.412;2022-09-24T07:10:54;6.57;;;5.97;;
16973;SDS011;8603;46.944;7.412;2022-09-24T07:13:45;6.53;;;5.83;;
16973;SDS011;8603;46.944;7.412;2022-09-24T07:16:30;6.30;;;5.80;;
16973;SDS011;8603;46.944;7.412;2022-09-24T07:19:09;5.83;;;4.77;;
16973;SDS011;8603;46.944;7.412;2022-09-24T07:21:46;4.03;;;3.63;;
16973;SDS011;8603;46.944;7.412;2022-09-24T07:24:48;4.27;;;3.87;;
16973;SDS011;8603;46.944;7.412;2022-09-24T07:27:22;3.17;;;2.83;;
16973;SDS011;8603;46.944;7.412;2022-09-24T07:29:58;3.63;;;3.20;;
16973;SDS011;8603;46.944;7.412;2022-09-24T07:32:37;3.87;;;3.30;;
16973;SDS011;8603;46.944;7.412;2022-09-24T07:35:04;2.83;;;2.53;;
16973;SDS011;8603;46.944;7.412;2022-09-24T07:37:41;3.87;;;3.10;;
16973;SDS011;8603;46.944;7.412;2022-09-24T07:42:54;3.23;;;2.20;;
16973;SDS011;8603;46.944;7.412;2022-09-24T07:45:36;2.47;;;2.27;;
16973;SDS011;8603;46.944;7.412;2022-09-24T07:48:03;2.90;;;2.60;;
16973;SDS011;8603;46.944;7.412;2022-09-24T07:50:31;4.77;;;3.03;;
16973;SDS011;8603;46.944;7.412;2022-09-24T07:52:58;2.90;;;2.70;;
16973;SDS011;8603;46.944;7.412;2022-09-24T07:55:25;3.67;;;3.10;;
16973;SDS011;8603;46.944;7.412;2022-09-24T07:57:51;2.87;;;2.67;;
16973;SDS011;8603;46.944;7.412;2022-09-24T08:00:18;3.67;;;2.67;;
16973;SDS011;8603;46.944;7.412;2022-09-24T08:02:45;3.10;;;2.80;;
16973;SDS011;8603;46.944;7.412;2022-09-24T08:05:12;2.80;;;2.23;;
16973;SDS011;8603;46.944;7.412;2022-09-24T08:07:39;3.23;;;2.60;;
16973;SDS011;8603;46.944;7.412;2022-09-24T08:10:05;2.40;;;2.20;;
16973;SDS011;8603;46.944;7.412;2022-09-24T08:12:31;2.83;;;2.50;;
16973;SDS011;8603;46.944;7.412;2022-09-24T08:14:57;2.43;;;2.23;;
16973;SDS011;8603;46.944;7.412;2022-09-24T08:17:23;4.17;;;2.30;;
16973;SDS011;8603;46.944;7.412;2022-09-24T08:19:49;3.05;;;2.60;;
16973;SDS011;8603;46.944;7.412;2022-09-24T08:22:23;3.23;;;2.63;;
16973;SDS011;8603;46.944;7.412;2022-09-24T08:24:50;2.40;;;2.20;;
16973;SDS011;8603;46.944;7.412;2022-09-24T08:27:19;2.13;;;1.93;;
16973;SDS011;8603;46.944;7.412;2022-09-24T08:29:45;2.60;;;2.10;;
16973;SDS011;8603;46.944;7.412;2022-09-24T08:32:10;2.57;;;2.37;;
16973;SDS011;8603;46.944;7.412;2022-09-24T08:34:37;2.80;;;2.47;;
16973;SDS011;8603;46.944;7.412;2022-09-24T08:37:04;12.30;;;2.57;;
16973;SDS011;8603;46.944;7.412;2022-09-24T08:39:32;2.70;;;2.50;;
16973;SDS011;8603;46.944;7.412;2022-09-24T08:41:59;2.10;;;2.00;;
16973;SDS011;8603;46.944;7.412;2022-09-24T08:44:28;2.20;;;2.00;;
16973;SDS011;8603;46.944;7.412;2022-09-24T08:47:30;2.83;;;2.57;;
16973;SDS011;8603;46.944;7.412;2022-09-24T08:50:02;2.83;;;2.10;;
